createdAt,value
2022-12-14T00:00:22.531Z,0.90
2022-12-14T00:02:53.828Z,0.90
2022-12-14T00:05:26.031Z,0.90
2022-12-14T00:07:57.676Z,0.90
2022-12-14T00:10:29.189Z,0.90
2022-12-14T00:13:00.942Z,0.90
2022-12-14T00:15:36.929Z,0.90
2022-12-14T00:18:09.124Z,0.90
2022-12-14T00:20:40.565Z,0.90
2022-12-14T00:23:12.433Z,0.90
2022-12-14T00:25:43.710Z,0.90
2022-12-14T00:28:20.424Z,0.90
2022-12-14T00:31:00.202Z,0.90
2022-12-14T00:33:32.211Z,0.90
2022-12-14T00:36:04.553Z,0.90
2022-12-14T00:38:37.535Z,0.90
2022-12-14T00:41:08.850Z,1.00
2022-12-14T00:43:40.765Z,0.90
2022-12-14T00:46:14.776Z,0.90
2022-12-14T00:48:46.053Z,0.90
2022-12-14T00:51:16.664Z,0.90
2022-12-14T00:53:48.062Z,0.90
2022-12-14T00:56:18.336Z,0.90
2022-12-14T00:58:53.929Z,0.90
2022-12-14T01:01:26.922Z,0.80
2022-12-14T01:04:17.399Z,0.80
2022-12-14T01:06:48.486Z,0.90
2022-12-14T01:09:19.420Z,0.90
2022-12-14T01:11:49.941Z,0.90
2022-12-14T01:14:21.899Z,0.80
2022-12-14T01:16:54.892Z,0.80
2022-12-14T01:19:25.234Z,0.90
2022-12-14T01:21:56.318Z,0.80
2022-12-14T01:24:26.695Z,0.90
2022-12-14T01:26:57.863Z,0.80
2022-12-14T01:29:28.271Z,1.00
2022-12-14T01:32:01.231Z,0.90
2022-12-14T01:34:31.561Z,0.90
2022-12-14T01:37:01.846Z,0.90
2022-12-14T01:39:32.346Z,0.90
2022-12-14T01:42:02.673Z,0.90
2022-12-14T01:45:05.867Z,1.00
2022-12-14T01:47:47.234Z,0.90
2022-12-14T01:50:25.649Z,0.90
2022-12-14T01:52:59.746Z,1.00
2022-12-14T01:55:33.035Z,1.00
2022-12-14T01:58:06.203Z,0.90
2022-12-14T02:00:36.755Z,0.90
2022-12-14T02:03:13.417Z,1.00
2022-12-14T02:05:46.548Z,0.70
2022-12-14T02:08:19.049Z,0.80
2022-12-14T02:10:50.667Z,0.80
2022-12-14T02:13:26.162Z,0.90
2022-12-14T02:15:56.949Z,0.90
2022-12-14T02:18:31.906Z,0.90
2022-12-14T02:21:25.257Z,0.90
2022-12-14T02:24:23.664Z,1.00
2022-12-14T02:27:37.418Z,1.00
2022-12-14T02:30:13.689Z,1.00
2022-12-14T02:33:11.646Z,1.10
2022-12-14T02:35:49.501Z,1.10
2022-12-14T02:38:43.240Z,1.10
2022-12-14T02:41:19.917Z,1.00
2022-12-14T02:44:01.177Z,1.10
2022-12-14T02:46:44.139Z,1.10
2022-12-14T02:49:27.217Z,1.10
2022-12-14T02:52:01.100Z,1.10
2022-12-14T02:54:38.107Z,1.10
2022-12-14T02:57:14.576Z,1.10
2022-12-14T02:59:46.169Z,1.10
2022-12-14T03:02:19.913Z,1.10
2022-12-14T03:04:51.018Z,1.10
2022-12-14T03:07:35.544Z,1.10
2022-12-14T03:10:12.727Z,1.20
2022-12-14T03:12:48.142Z,1.20
2022-12-14T03:15:21.379Z,1.20
2022-12-14T03:17:57.804Z,1.20
2022-12-14T03:20:31.823Z,1.30
2022-12-14T03:23:05.811Z,1.20
2022-12-14T03:25:43.129Z,1.20
2022-12-14T03:28:21.381Z,1.10
2022-12-14T03:31:00.399Z,1.20
2022-12-14T03:33:34.877Z,1.20
2022-12-14T03:36:12.191Z,1.20
2022-12-14T03:38:44.991Z,1.20
2022-12-14T03:41:25.818Z,1.20
2022-12-14T03:44:10.162Z,1.10
2022-12-14T03:46:44.443Z,1.10
2022-12-14T03:49:24.901Z,1.20
2022-12-14T03:52:03.879Z,1.10
2022-12-14T03:54:47.014Z,1.10
2022-12-14T03:57:28.292Z,1.20
2022-12-14T04:00:04.700Z,1.10
2022-12-14T04:02:49.658Z,1.10
2022-12-14T04:05:28.141Z,1.10
2022-12-14T04:08:00.484Z,1.10
2022-12-14T04:10:49.753Z,1.10
2022-12-14T04:13:38.290Z,1.20
2022-12-14T04:16:26.364Z,1.20
2022-12-14T04:19:02.515Z,1.20
2022-12-14T04:21:42.130Z,1.40
2022-12-14T04:24:34.359Z,1.30
2022-12-14T04:27:14.146Z,1.30
2022-12-14T04:30:01.045Z,1.20
2022-12-14T04:32:36.730Z,1.20
2022-12-14T04:35:13.065Z,1.30
2022-12-14T04:37:50.443Z,1.20
2022-12-14T04:40:24.810Z,1.20
2022-12-14T04:43:04.317Z,1.30
2022-12-14T04:45:39.415Z,1.30
2022-12-14T04:48:16.098Z,1.20
2022-12-14T04:50:51.627Z,1.20
2022-12-14T04:53:28.091Z,1.20
2022-12-14T04:56:07.346Z,1.20
2022-12-14T04:58:38.337Z,1.30
2022-12-14T05:01:25.893Z,1.30
2022-12-14T05:04:08.174Z,1.30
2022-12-14T05:06:48.678Z,1.40
2022-12-14T05:09:29.351Z,1.20
2022-12-14T05:12:07.934Z,1.20
2022-12-14T05:14:42.599Z,1.20
2022-12-14T05:17:13.562Z,1.30
2022-12-14T05:19:49.011Z,1.20
2022-12-14T05:22:20.937Z,1.30
2022-12-14T05:24:53.913Z,1.20
2022-12-14T05:27:24.154Z,1.30
2022-12-14T05:29:54.513Z,1.20
2022-12-14T05:32:24.844Z,1.30
2022-12-14T05:34:55.264Z,1.30
2022-12-14T05:37:25.619Z,1.40
2022-12-14T05:39:58.628Z,1.30
2022-12-14T05:42:28.922Z,1.30
2022-12-14T05:44:59.157Z,1.20
2022-12-14T05:47:30.700Z,1.30
2022-12-14T05:50:01.002Z,1.30
2022-12-14T05:52:31.541Z,1.30
2022-12-14T05:55:05.121Z,1.30
2022-12-14T05:57:35.493Z,1.40
2022-12-14T06:00:06.851Z,1.30
2022-12-14T06:02:37.196Z,1.30
2022-12-14T06:05:07.959Z,1.30
2022-12-14T06:07:38.282Z,1.30
2022-12-14T06:10:12.066Z,1.30
2022-12-14T06:12:42.311Z,1.30
2022-12-14T06:15:14.152Z,1.30
2022-12-14T06:17:46.191Z,1.30
2022-12-14T06:20:17.361Z,1.40
2022-12-14T06:22:47.994Z,1.50
2022-12-14T06:25:21.043Z,1.30
2022-12-14T06:27:55.448Z,1.30
2022-12-14T06:30:26.758Z,1.50
2022-12-14T06:32:57.026Z,1.30
2022-12-14T06:35:27.417Z,1.30
2022-12-14T06:37:58.163Z,1.40
2022-12-14T06:40:31.023Z,1.40
2022-12-14T06:43:01.342Z,1.50
2022-12-14T06:45:31.816Z,1.40
2022-12-14T06:48:02.205Z,1.50
2022-12-14T06:50:32.488Z,1.40
2022-12-14T06:53:02.752Z,1.40
2022-12-14T06:55:35.992Z,1.30
2022-12-14T06:58:06.342Z,1.30
2022-12-14T07:00:36.697Z,1.40
2022-12-14T07:03:07.270Z,1.50
2022-12-14T07:05:37.690Z,1.40
2022-12-14T07:08:08.456Z,1.30
2022-12-14T07:10:41.466Z,1.30
2022-12-14T07:13:11.712Z,1.40
2022-12-14T07:15:42.489Z,1.40
2022-12-14T07:18:12.835Z,1.40
2022-12-14T07:20:44.863Z,1.30
2022-12-14T07:23:15.146Z,1.30
2022-12-14T07:25:48.024Z,1.30
2022-12-14T07:28:19.732Z,1.30
2022-12-14T07:30:50.195Z,1.40
2022-12-14T07:33:20.464Z,1.40
2022-12-14T07:35:50.823Z,1.20
2022-12-14T07:38:21.165Z,1.20
2022-12-14T07:40:54.094Z,1.20
2022-12-14T07:43:24.691Z,1.20
2022-12-14T07:45:55.243Z,1.20
2022-12-14T07:48:25.569Z,1.10
2022-12-14T07:50:55.888Z,1.40
2022-12-14T07:53:26.631Z,1.30
2022-12-14T07:56:04.887Z,1.30
2022-12-14T07:58:35.853Z,1.20
2022-12-14T08:01:13.995Z,1.20
2022-12-14T08:03:45.718Z,1.10
2022-12-14T08:06:16.854Z,1.20
2022-12-14T08:08:47.442Z,1.10
2022-12-14T08:11:23.096Z,1.30
2022-12-14T08:13:56.661Z,1.10
2022-12-14T08:16:27.793Z,1.20
2022-12-14T08:18:59.498Z,1.10
2022-12-14T08:21:31.032Z,1.10
2022-12-14T08:24:01.648Z,1.20
2022-12-14T08:26:36.077Z,1.10
2022-12-14T08:29:07.277Z,1.10
2022-12-14T08:31:38.012Z,1.10
2022-12-14T08:34:09.879Z,1.10
2022-12-14T08:36:40.151Z,1.10
2022-12-14T08:39:13.516Z,1.10
2022-12-14T08:41:46.534Z,1.10
2022-12-14T08:44:17.667Z,1.00
2022-12-14T08:46:48.143Z,1.10
2022-12-14T08:49:19.158Z,1.00
2022-12-14T08:51:49.603Z,1.10
2022-12-14T08:54:20.195Z,1.00
2022-12-14T08:56:53.238Z,1.10
2022-12-14T08:59:52.178Z,1.10
2022-12-14T09:02:14.584Z,1.00
2022-12-14T09:04:45.067Z,1.20
2022-12-14T09:07:15.521Z,1.10
2022-12-14T09:09:45.845Z,1.10
2022-12-14T09:12:18.919Z,1.10
2022-12-14T09:14:49.860Z,1.10
2022-12-14T09:17:20.689Z,1.20
2022-12-14T09:19:51.119Z,1.10
2022-12-14T09:22:21.720Z,1.10
2022-12-14T09:24:52.740Z,1.20
2022-12-14T09:27:26.116Z,1.10
2022-12-14T09:29:56.569Z,1.20
2022-12-14T09:32:27.191Z,1.20
2022-12-14T09:34:59.856Z,1.10
2022-12-14T09:37:30.208Z,1.20
2022-12-14T09:40:00.537Z,1.10
2022-12-14T09:42:51.297Z,1.10
2022-12-14T09:45:28.370Z,1.10
2022-12-14T09:48:06.859Z,1.10
2022-12-14T09:50:37.976Z,1.30
2022-12-14T09:53:14.468Z,1.20
2022-12-14T09:55:47.669Z,1.10
2022-12-14T09:58:24.781Z,1.10
2022-12-14T10:00:59.265Z,1.10
2022-12-14T10:03:50.091Z,1.10
2022-12-14T10:06:35.030Z,1.00
2022-12-14T10:09:13.468Z,1.10
2022-12-14T10:11:52.403Z,1.00
2022-12-14T10:14:38.347Z,1.00
2022-12-14T10:17:19.716Z,1.10
2022-12-14T10:19:56.545Z,1.10
2022-12-14T10:22:31.204Z,1.10
2022-12-14T10:25:08.502Z,1.10
2022-12-14T10:28:09.406Z,1.10
2022-12-14T10:30:33.060Z,1.30
2022-12-14T10:33:13.955Z,1.30
2022-12-14T10:35:52.839Z,1.30
2022-12-14T10:38:30.028Z,1.30
2022-12-14T10:41:08.491Z,1.30
2022-12-14T10:43:49.550Z,1.30
2022-12-14T10:46:32.209Z,1.30
2022-12-14T10:49:09.266Z,1.30
2022-12-14T10:51:42.155Z,1.50
2022-12-14T10:54:22.889Z,1.50
2022-12-14T10:56:53.722Z,1.40
2022-12-14T10:59:39.810Z,1.40
2022-12-14T11:02:18.106Z,1.40
2022-12-14T11:04:52.687Z,1.50
2022-12-14T11:07:25.101Z,1.60
2022-12-14T11:09:56.122Z,1.50
2022-12-14T11:12:28.764Z,1.50
2022-12-14T11:15:01.667Z,1.60
2022-12-14T11:17:43.245Z,1.50
2022-12-14T11:20:25.124Z,1.60
2022-12-14T11:23:00.213Z,1.60
2022-12-14T11:25:33.561Z,1.80
2022-12-14T11:28:07.215Z,1.70
2022-12-14T11:30:37.616Z,1.70
2022-12-14T11:33:19.947Z,1.80
2022-12-14T11:35:53.598Z,1.80
2022-12-14T11:38:25.205Z,1.80
2022-12-14T11:40:55.562Z,1.80
2022-12-14T11:43:31.067Z,1.80
2022-12-14T11:46:02.424Z,1.80
2022-12-14T11:48:39.410Z,1.80
2022-12-14T11:51:14.874Z,1.90
2022-12-14T11:53:45.313Z,1.80
2022-12-14T11:56:19.388Z,1.90
2022-12-14T11:58:55.899Z,1.90
2022-12-14T12:01:29.248Z,1.90
2022-12-14T12:04:04.062Z,1.80
2022-12-14T12:06:35.034Z,1.90
2022-12-14T12:09:13.525Z,1.90
2022-12-14T12:11:47.021Z,1.90
2022-12-14T12:14:28.702Z,2.00
2022-12-14T12:16:59.314Z,2.00
2022-12-14T12:19:36.726Z,2.00
2022-12-14T12:22:07.949Z,2.10
2022-12-14T12:25:00.993Z,2.10
2022-12-14T12:27:32.478Z,2.20
2022-12-14T12:30:11.395Z,2.20
2022-12-14T12:32:50.349Z,2.20
2022-12-14T12:35:27.901Z,2.20
2022-12-14T12:38:01.742Z,2.10
2022-12-14T12:40:34.781Z,2.30
2022-12-14T12:43:13.251Z,2.20
2022-12-14T12:45:44.913Z,2.20
2022-12-14T12:48:19.866Z,2.20
2022-12-14T12:50:57.536Z,2.20
2022-12-14T12:53:33.271Z,2.30
2022-12-14T12:56:11.419Z,2.60
2022-12-14T12:58:49.068Z,2.40
2022-12-14T13:01:28.210Z,2.30
2022-12-14T13:04:02.879Z,2.40
2022-12-14T13:06:41.489Z,2.40
2022-12-14T13:09:19.658Z,2.40
2022-12-14T13:11:50.668Z,2.50
2022-12-14T13:14:31.332Z,2.50
2022-12-14T13:17:02.702Z,2.50
2022-12-14T13:19:50.406Z,2.50
2022-12-14T13:22:28.776Z,2.50
2022-12-14T13:25:02.017Z,2.40
2022-12-14T13:27:58.535Z,2.50
2022-12-14T13:30:46.324Z,2.50
2022-12-14T13:33:38.591Z,2.50
2022-12-14T13:36:34.672Z,2.50
2022-12-14T13:39:36.512Z,2.50
2022-12-14T13:42:11.835Z,2.40
2022-12-14T13:44:58.454Z,2.50
2022-12-14T13:47:32.969Z,2.50
2022-12-14T13:50:35.520Z,2.50
2022-12-14T13:53:01.951Z,2.40
2022-12-14T13:55:40.272Z,2.40
2022-12-14T13:58:17.132Z,2.30
2022-12-14T14:00:56.925Z,2.20
2022-12-14T14:03:46.876Z,2.40
2022-12-14T14:06:37.542Z,2.40
2022-12-14T14:09:46.799Z,2.40
2022-12-14T14:12:47.636Z,2.30
2022-12-14T14:16:11.307Z,2.30
2022-12-14T14:18:39.186Z,2.10
2022-12-14T14:21:32.883Z,2.30
2022-12-14T14:24:04.565Z,2.30
2022-12-14T14:26:36.536Z,2.30
2022-12-14T14:29:28.719Z,2.30
2022-12-14T14:32:01.703Z,2.30
2022-12-14T14:34:51.206Z,2.30
2022-12-14T14:37:36.767Z,2.30
2022-12-14T14:40:38.238Z,2.20
2022-12-14T14:43:26.023Z,2.30
2022-12-14T14:46:01.907Z,2.30
2022-12-14T14:48:37.360Z,2.30
2022-12-14T14:51:16.674Z,2.20
2022-12-14T14:53:50.396Z,2.20
2022-12-14T14:56:40.184Z,2.20
2022-12-14T14:59:42.238Z,2.20
2022-12-14T15:02:33.406Z,2.10
2022-12-14T15:05:33.315Z,2.10
2022-12-14T15:07:59.223Z,2.10
2022-12-14T15:10:35.508Z,2.10
2022-12-14T15:13:09.894Z,2.10
2022-12-14T15:15:45.272Z,2.00
2022-12-14T15:18:25.306Z,2.00
2022-12-14T15:21:03.820Z,2.30
2022-12-14T15:23:36.168Z,2.50
2022-12-14T15:26:16.937Z,2.10
2022-12-14T15:28:51.490Z,2.00
2022-12-14T15:31:30.513Z,1.90
2022-12-14T15:34:04.259Z,2.00
2022-12-14T15:36:40.402Z,1.80
2022-12-14T15:39:29.641Z,1.90
2022-12-14T15:42:06.763Z,1.80
2022-12-14T15:44:37.234Z,1.80
2022-12-14T15:47:08.156Z,1.80
2022-12-14T15:49:41.356Z,1.70
2022-12-14T15:52:13.904Z,1.70
2022-12-14T15:54:45.797Z,1.60
2022-12-14T15:57:20.572Z,1.60
2022-12-14T15:59:52.479Z,1.60
2022-12-14T16:02:29.324Z,1.60
2022-12-14T16:05:07.598Z,1.70
2022-12-14T16:07:41.751Z,1.50
2022-12-14T16:10:23.010Z,1.40
2022-12-14T16:12:57.267Z,1.40
2022-12-14T16:15:29.791Z,1.50
2022-12-14T16:18:03.416Z,1.40
2022-12-14T16:20:39.989Z,1.40
2022-12-14T16:23:28.365Z,1.40
2022-12-14T16:26:01.411Z,1.40
2022-12-14T16:28:34.353Z,1.40
2022-12-14T16:31:08.563Z,1.40
2022-12-14T16:33:40.768Z,1.30
2022-12-14T16:36:27.168Z,1.40
2022-12-14T16:39:00.276Z,1.30
2022-12-14T16:41:38.067Z,1.30
2022-12-14T16:44:11.576Z,1.30
2022-12-14T16:46:42.103Z,1.20
2022-12-14T16:49:35.744Z,1.30
2022-12-14T16:52:20.081Z,1.30
2022-12-14T16:55:14.292Z,1.20
2022-12-14T16:57:55.165Z,1.20
2022-12-14T17:00:29.699Z,1.20
2022-12-14T17:03:02.498Z,1.20
2022-12-14T17:05:38.011Z,1.20
2022-12-14T17:08:11.725Z,1.10
2022-12-14T17:10:42.056Z,1.20
2022-12-14T17:13:13.301Z,1.10
2022-12-14T17:15:59.450Z,1.10
2022-12-14T17:18:33.343Z,1.10
2022-12-14T17:21:05.437Z,1.10
2022-12-14T17:23:41.702Z,1.10
2022-12-14T17:26:21.406Z,1.10
2022-12-14T17:28:52.127Z,1.00
2022-12-14T17:31:24.716Z,1.00
2022-12-14T17:33:56.867Z,1.00
2022-12-14T17:36:27.403Z,1.00
2022-12-14T17:39:00.315Z,1.10
2022-12-14T17:41:31.066Z,1.00
2022-12-14T17:44:01.440Z,1.00
2022-12-14T17:46:31.983Z,1.00
2022-12-14T17:49:06.415Z,0.90
2022-12-14T17:51:42.247Z,1.00
2022-12-14T17:54:21.524Z,0.90
2022-12-14T17:56:55.001Z,0.90
2022-12-14T17:59:25.298Z,0.80
2022-12-14T18:01:55.805Z,0.90
2022-12-14T18:04:26.158Z,0.80
2022-12-14T18:06:56.505Z,0.90
2022-12-14T18:09:29.380Z,0.90
2022-12-14T18:12:22.760Z,0.80
2022-12-14T18:14:50.124Z,0.80
2022-12-14T18:17:20.442Z,0.90
2022-12-14T18:19:50.669Z,0.80
2022-12-14T18:22:20.999Z,0.80
2022-12-14T18:24:53.854Z,0.70
2022-12-14T18:27:24.181Z,0.70
2022-12-14T18:29:54.659Z,0.70
2022-12-14T18:32:25.004Z,0.70
2022-12-14T18:34:55.275Z,0.70
2022-12-14T18:37:31.203Z,0.70
2022-12-14T18:40:05.888Z,0.70
2022-12-14T18:42:36.780Z,0.60
2022-12-14T18:45:07.778Z,0.60
2022-12-14T18:47:42.462Z,0.60
2022-12-14T18:50:13.310Z,0.60
2022-12-14T18:52:43.938Z,0.60
2022-12-14T18:55:22.064Z,0.60
2022-12-14T18:57:54.659Z,0.60
2022-12-14T19:00:26.993Z,0.60
2022-12-14T19:03:01.091Z,0.50
2022-12-14T19:05:34.462Z,0.50
2022-12-14T19:08:05.183Z,0.50
2022-12-14T19:10:38.618Z,0.50
2022-12-14T19:13:10.652Z,0.50
2022-12-14T19:15:41.037Z,0.50
2022-12-14T19:18:11.534Z,0.50
2022-12-14T19:20:42.249Z,0.50
2022-12-14T19:23:18.411Z,0.50
2022-12-14T19:25:51.526Z,0.40
2022-12-14T19:28:37.373Z,0.40
2022-12-14T19:31:08.253Z,0.40
2022-12-14T19:33:39.750Z,0.40
2022-12-14T19:36:11.592Z,0.40
2022-12-14T19:38:42.043Z,0.40
2022-12-14T19:41:17.921Z,0.30
2022-12-14T19:43:48.332Z,0.30
2022-12-14T19:46:18.821Z,0.40
2022-12-14T19:48:49.228Z,0.30
2022-12-14T19:51:21.702Z,0.30
2022-12-14T19:53:53.084Z,0.30
2022-12-14T19:56:25.943Z,0.40
2022-12-14T19:58:57.903Z,0.30
2022-12-14T20:01:32.685Z,0.30
2022-12-14T20:04:04.248Z,0.30
2022-12-14T20:06:34.910Z,0.30
2022-12-14T20:09:07.671Z,0.30
2022-12-14T20:11:40.564Z,0.30
2022-12-14T20:14:10.936Z,0.40
2022-12-14T20:16:41.624Z,0.40
2022-12-14T20:19:14.603Z,0.30
2022-12-14T20:21:44.885Z,0.30
2022-12-14T20:24:15.297Z,0.40
2022-12-14T20:26:49.293Z,0.40
2022-12-14T20:29:19.737Z,0.30
2022-12-14T20:31:50.066Z,0.40
2022-12-14T20:34:20.479Z,0.30
2022-12-14T20:36:50.897Z,0.30
2022-12-14T20:39:21.275Z,0.30
2022-12-14T20:41:54.131Z,0.30
2022-12-14T20:44:24.528Z,0.30
2022-12-14T20:46:54.838Z,0.30
2022-12-14T20:49:30.139Z,0.40
2022-12-14T20:52:00.408Z,0.40
2022-12-14T20:54:30.854Z,0.30
2022-12-14T20:57:03.703Z,0.30
2022-12-14T20:59:34.159Z,0.30
2022-12-14T21:02:04.765Z,0.30
2022-12-14T21:04:35.306Z,0.30
2022-12-14T21:07:05.532Z,0.40
2022-12-14T21:09:35.925Z,0.30
2022-12-14T21:12:24.093Z,0.30
2022-12-14T21:14:55.624Z,0.30
2022-12-14T21:17:28.892Z,0.30
2022-12-14T21:19:59.582Z,0.30
2022-12-14T21:22:31.820Z,0.40
2022-12-14T21:25:04.196Z,0.20
2022-12-14T21:27:40.844Z,0.20
2022-12-14T21:30:13.999Z,0.20
2022-12-14T21:32:44.324Z,0.20
2022-12-14T21:35:17.739Z,0.20
2022-12-14T21:37:48.082Z,0.20
2022-12-14T21:40:38.531Z,0.20
2022-12-14T21:43:08.769Z,0.20
2022-12-14T21:45:39.118Z,0.10
2022-12-14T21:48:09.473Z,-0.10
2022-12-14T21:50:42.539Z,0.00
2022-12-14T21:53:12.806Z,0.10
2022-12-14T21:55:51.783Z,0.10
2022-12-14T21:58:24.456Z,0.10
2022-12-14T22:00:54.971Z,0.10
2022-12-14T22:03:25.310Z,0.10
2022-12-14T22:05:55.666Z,0.00
2022-12-14T22:08:25.937Z,0.00
2022-12-14T22:10:56.290Z,0.00
2022-12-14T22:13:29.544Z,0.00
2022-12-14T22:16:00.510Z,0.00
2022-12-14T22:18:30.816Z,-0.10
2022-12-14T22:21:06.665Z,-0.10
2022-12-14T22:23:42.896Z,-0.10
2022-12-14T22:26:14.465Z,-0.20
2022-12-14T22:28:47.302Z,-0.10
2022-12-14T22:31:17.722Z,-0.20
2022-12-14T22:33:49.585Z,-0.10
2022-12-14T22:36:20.654Z,-0.20
2022-12-14T22:38:51.224Z,-0.20
2022-12-14T22:41:22.606Z,-0.20
2022-12-14T22:43:59.938Z,-0.10
2022-12-14T22:46:32.037Z,-0.10
2022-12-14T22:49:02.606Z,-0.10
2022-12-14T22:51:32.974Z,-0.10
2022-12-14T22:54:03.298Z,0.00
2022-12-14T22:56:39.691Z,-0.20
2022-12-14T22:59:16.547Z,-0.20
2022-12-14T23:01:50.177Z,-0.20
2022-12-14T23:04:21.109Z,-0.20
2022-12-14T23:06:51.521Z,-0.20
2022-12-14T23:09:34.124Z,-0.20
2022-12-14T23:12:21.591Z,-0.10
2022-12-14T23:15:07.220Z,-0.20
2022-12-14T23:17:50.033Z,-0.10
2022-12-14T23:20:32.607Z,0.00
2022-12-14T23:23:15.217Z,-0.20
2022-12-14T23:25:57.787Z,-0.20
2022-12-14T23:28:40.639Z,-0.20
2022-12-14T23:31:25.916Z,-0.10
2022-12-14T23:34:08.648Z,-0.20
2022-12-14T23:36:51.259Z,-0.20
2022-12-14T23:39:33.973Z,-0.20
2022-12-14T23:42:16.624Z,-0.20
2022-12-14T23:44:59.326Z,-0.30
2022-12-14T23:47:44.491Z,-0.10
2022-12-14T23:50:32.112Z,-0.40
2022-12-14T23:53:19.976Z,-0.30
2022-12-14T23:56:02.625Z,-0.30
2022-12-14T23:58:47.422Z,-0.30
